Time;durP1;ratioP1;P1;durP2;ratioP2;P2;SDS_P1;SDS_P2;PMS_P1;PMS_P2;Temp;Humidity;BMP_temperature;BMP_pressure;BME280_temperature;BME280_humidity;BME280_pressure;Samples;Min_cycle;Max_cycle;Signal;HPM_P1;HPM_P2
2021/12/14 00:01:46;;;;;;;173.57;164.50;;;9.10;99.90;;;;;;4375965;32;20223;-66
2021/12/14 00:04:18;;;;;;;175.27;165.93;;;9.10;99.90;;;;;;4365246;32;20211;-69
2021/12/14 00:06:47;;;;;;;159.27;150.87;;;9.00;99.90;;;;;;4367035;32;20173;-67
2021/12/14 00:09:25;;;;;;;179.60;170.40;;;9.00;99.90;;;;;;4374816;32;20243;-67
2021/12/14 00:12:11;;;;;;;191.20;181.70;;;9.10;99.90;;;;;;4376291;32;20144;-71
2021/12/14 00:17:33;;;;;;;187.53;177.77;;;9.00;99.90;;;;;;4375177;32;20156;-67
2021/12/14 00:20:01;;;;;;;191.57;181.77;;;9.00;99.90;;;;;;4375140;32;20140;-67
2021/12/14 00:22:36;;;;;;;195.77;185.87;;;9.10;99.90;;;;;;4376781;32;20157;-67
2021/12/14 00:25:03;;;;;;;194.37;184.77;;;9.10;99.90;;;;;;4373422;32;20200;-68
2021/12/14 00:27:32;;;;;;;181.73;172.67;;;9.10;99.90;;;;;;4375525;32;20157;-67
2021/12/14 00:30:02;;;;;;;184.17;175.17;;;9.10;99.90;;;;;;4375926;32;20177;-68
2021/12/14 00:32:35;;;;;;;203.37;193.63;;;9.00;99.90;;;;;;4375052;32;20158;-71
2021/12/14 00:35:03;;;;;;;190.90;181.13;;;9.00;99.90;;;;;;4360817;32;20236;-67
2021/12/14 00:37:34;;;;;;;183.37;173.97;;;9.00;99.90;;;;;;4364351;32;20211;-68
2021/12/14 00:40:05;;;;;;;181.00;171.83;;;9.00;99.90;;;;;;4374902;32;20519;-68
2021/12/14 00:42:34;;;;;;;180.67;171.03;;;9.00;99.90;;;;;;4375021;32;20526;-68
2021/12/14 00:45:01;;;;;;;178.73;169.60;;;9.00;99.90;;;;;;4375022;32;20138;-68
2021/12/14 00:47:28;;;;;;;192.60;182.87;;;9.00;99.90;;;;;;4377291;32;20488;-68
2021/12/14 00:49:55;;;;;;;185.20;175.37;;;9.00;99.90;;;;;;4377579;32;20184;-67
2021/12/14 00:52:22;;;;;;;199.33;189.30;;;8.90;99.90;;;;;;4376898;32;20223;-69
2021/12/14 00:54:49;;;;;;;200.70;190.70;;;9.00;99.90;;;;;;4378652;32;20188;-67
2021/12/14 00:57:17;;;;;;;185.97;176.47;;;9.00;99.90;;;;;;4377200;32;20152;-68
2021/12/14 00:59:45;;;;;;;190.23;180.37;;;9.00;99.90;;;;;;4377535;32;20191;-69
2021/12/14 01:02:18;;;;;;;194.93;185.10;;;9.00;99.90;;;;;;4377648;32;20167;-67
2021/12/14 01:04:48;;;;;;;182.17;172.57;;;9.00;99.90;;;;;;4377384;32;20262;-68
2021/12/14 01:07:18;;;;;;;183.70;174.33;;;9.10;99.90;;;;;;4376857;32;20232;-68
2021/12/14 01:09:51;;;;;;;180.10;170.20;;;9.00;99.90;;;;;;4378880;32;20620;-70
2021/12/14 01:12:32;;;;;;;178.93;169.57;;;8.90;99.90;;;;;;4377320;32;20157;-66
2021/12/14 01:15:23;;;;;;;185.80;176.30;;;9.00;99.90;;;;;;4377036;32;20145;-68
2021/12/14 01:17:54;;;;;;;184.60;174.90;;;9.00;99.90;;;;;;4377313;32;20227;-67
2021/12/14 01:20:29;;;;;;;179.70;170.27;;;9.00;99.90;;;;;;4373436;32;20221;-67
2021/12/14 01:23:00;;;;;;;181.83;171.87;;;9.00;99.90;;;;;;4362946;32;20148;-68
2021/12/14 01:25:34;;;;;;;190.97;180.73;;;9.00;99.90;;;;;;4362710;32;20199;-69
2021/12/14 01:28:05;;;;;;;192.97;182.33;;;8.90;99.90;;;;;;4369234;32;20156;-67
2021/12/14 01:30:41;;;;;;;190.00;180.07;;;8.90;99.90;;;;;;4377603;32;20161;-66
2021/12/14 01:33:13;;;;;;;191.70;181.93;;;8.90;99.90;;;;;;4362099;32;20201;-71
2021/12/14 01:35:43;;;;;;;196.27;185.80;;;8.90;99.90;;;;;;4367281;32;20168;-68
2021/12/14 01:38:31;;;;;;;199.37;189.23;;;8.90;99.90;;;;;;4378470;32;20182;-67
2021/12/14 01:41:01;;;;;;;196.13;185.87;;;8.90;99.90;;;;;;4376647;32;20574;-73
2021/12/14 01:43:34;;;;;;;192.63;182.23;;;8.80;99.90;;;;;;4376557;32;20224;-68
2021/12/14 01:46:07;;;;;;;202.13;191.80;;;8.90;99.90;;;;;;4376721;32;20212;-70
2021/12/14 01:48:35;;;;;;;206.90;196.30;;;8.90;99.90;;;;;;4375567;32;20189;-67
2021/12/14 01:51:06;;;;;;;190.10;179.80;;;8.80;99.90;;;;;;4376963;32;20209;-66
2021/12/14 01:53:34;;;;;;;199.73;189.13;;;8.90;99.90;;;;;;4376507;32;20226;-68
2021/12/14 01:56:05;;;;;;;199.30;188.53;;;8.80;99.90;;;;;;4376496;32;20596;-67
2021/12/14 01:58:37;;;;;;;199.10;188.43;;;8.90;99.90;;;;;;4375225;32;20149;-70
2021/12/14 02:01:11;;;;;;;191.83;181.67;;;8.80;99.90;;;;;;4376648;32;20155;-69
2021/12/14 02:03:42;;;;;;;208.80;197.67;;;8.80;99.90;;;;;;4376531;32;20626;-72
2021/12/14 02:06:14;;;;;;;212.27;201.20;;;8.80;99.90;;;;;;4375603;32;20224;-69
2021/12/14 02:08:41;;;;;;;200.30;189.37;;;8.90;99.90;;;;;;4377748;32;20156;-71
2021/12/14 02:11:10;;;;;;;201.27;190.10;;;8.90;99.90;;;;;;4376407;32;20167;-70
2021/12/14 02:13:40;;;;;;;206.90;195.77;;;8.90;99.90;;;;;;4364833;32;20191;-68
2021/12/14 02:16:11;;;;;;;215.67;204.03;;;8.80;99.90;;;;;;4361358;33;20200;-68
2021/12/14 02:18:42;;;;;;;207.30;196.17;;;8.90;99.90;;;;;;4361556;32;20165;-69
2021/12/14 02:21:13;;;;;;;205.03;193.73;;;8.80;99.90;;;;;;4361492;33;20159;-70
2021/12/14 02:23:45;;;;;;;191.87;181.23;;;8.90;99.90;;;;;;4374437;32;20644;-67
2021/12/14 02:26:15;;;;;;;202.53;191.40;;;8.90;99.90;;;;;;4376009;32;20153;-67
2021/12/14 02:28:42;;;;;;;189.67;179.20;;;8.90;99.90;;;;;;4375449;32;20232;-68
2021/12/14 02:31:11;;;;;;;208.00;196.67;;;8.80;99.90;;;;;;4365322;32;20209;-67
2021/12/14 02:33:41;;;;;;;216.73;205.07;;;8.90;99.90;;;;;;4372687;32;20238;-67
2021/12/14 02:36:13;;;;;;;209.37;197.77;;;8.90;99.90;;;;;;4362158;32;20176;-70
2021/12/14 02:38:41;;;;;;;224.73;212.77;;;8.80;99.90;;;;;;4364509;32;20217;-67
2021/12/14 02:41:09;;;;;;;226.90;214.77;;;8.80;99.90;;;;;;4361054;33;20463;-68
2021/12/14 02:43:39;;;;;;;238.03;225.53;;;8.80;99.90;;;;;;4361134;33;20167;-70
2021/12/14 02:46:10;;;;;;;229.47;217.33;;;8.90;99.90;;;;;;4362735;32;20247;-69
2021/12/14 02:48:39;;;;;;;213.50;202.23;;;8.80;99.90;;;;;;4361057;33;20149;-68
2021/12/14 02:51:14;;;;;;;223.40;211.57;;;8.90;99.90;;;;;;4364237;32;20545;-68
2021/12/14 02:53:42;;;;;;;200.57;189.37;;;8.90;99.90;;;;;;4377121;32;20160;-67
2021/12/14 02:56:11;;;;;;;210.07;198.33;;;8.90;99.90;;;;;;4375462;32;20153;-69
2021/12/14 02:58:39;;;;;;;222.03;209.97;;;8.90;99.90;;;;;;4375943;32;20203;-69
2021/12/14 03:01:07;;;;;;;206.93;195.53;;;8.90;99.90;;;;;;4375773;32;20208;-67
2021/12/14 03:03:35;;;;;;;201.93;190.53;;;8.90;99.90;;;;;;4375644;32;20183;-67
2021/12/14 03:06:05;;;;;;;207.20;195.83;;;8.90;99.90;;;;;;4373319;32;20169;-67
2021/12/14 03:08:43;;;;;;;214.00;202.17;;;8.80;99.90;;;;;;4360313;32;20172;-71
2021/12/14 03:11:13;;;;;;;195.40;184.40;;;8.90;99.90;;;;;;4361449;32;20141;-69
2021/12/14 03:13:43;;;;;;;209.80;197.97;;;8.90;99.90;;;;;;4367172;32;20176;-67
2021/12/14 03:16:15;;;;;;;199.53;188.07;;;8.90;99.90;;;;;;4375732;32;20617;-66
2021/12/14 03:18:45;;;;;;;217.47;206.20;;;8.90;99.90;;;;;;4375534;32;20161;-68
2021/12/14 03:21:15;;;;;;;208.20;196.90;;;8.90;99.90;;;;;;4369038;32;20168;-70
2021/12/14 03:23:47;;;;;;;208.83;197.20;;;8.80;99.90;;;;;;4360612;33;20205;-67
2021/12/14 03:26:16;;;;;;;223.53;211.67;;;8.80;99.90;;;;;;4362408;32;20269;-67
2021/12/14 03:28:46;;;;;;;218.73;206.33;;;8.80;99.90;;;;;;4372918;32;20157;-68
2021/12/14 03:31:28;;;;;;;236.87;223.27;;;8.80;99.90;;;;;;4370483;32;20209;-67
2021/12/14 03:33:58;;;;;;;227.83;215.47;;;8.80;99.90;;;;;;4374708;32;20174;-67
2021/12/14 03:36:28;;;;;;;235.27;222.60;;;8.80;99.90;;;;;;4375250;32;20198;-67
2021/12/14 03:39:01;;;;;;;219.03;206.97;;;8.80;99.90;;;;;;4377096;32;20254;-68
2021/12/14 03:41:31;;;;;;;215.73;204.40;;;8.90;99.90;;;;;;4366058;32;20185;-66
2021/12/14 03:44:00;;;;;;;218.03;206.73;;;8.90;99.90;;;;;;4369353;32;20175;-67
2021/12/14 03:46:28;;;;;;;203.03;192.03;;;8.90;99.90;;;;;;4362106;33;20158;-67
2021/12/14 03:48:55;;;;;;;189.27;178.60;;;8.90;99.90;;;;;;4373446;32;20635;-67
2021/12/14 03:51:23;;;;;;;195.17;184.27;;;8.90;99.90;;;;;;4376586;32;20146;-72
2021/12/14 03:53:52;;;;;;;205.53;194.20;;;8.90;99.90;;;;;;4375368;32;20229;-67
2021/12/14 03:56:20;;;;;;;196.53;185.77;;;8.90;99.90;;;;;;4374870;32;20190;-65
2021/12/14 03:58:48;;;;;;;218.67;207.10;;;8.90;99.90;;;;;;4376526;32;20474;-68
2021/12/14 04:01:20;;;;;;;220.13;208.50;;;8.90;99.90;;;;;;4375227;32;20201;-67
2021/12/14 04:03:49;;;;;;;213.03;201.27;;;8.90;99.90;;;;;;4362181;32;20182;-70
2021/12/14 04:06:17;;;;;;;221.63;209.90;;;8.90;99.90;;;;;;4375732;32;20220;-68
2021/12/14 04:08:45;;;;;;;217.07;205.40;;;8.90;99.90;;;;;;4376482;32;20149;-68
2021/12/14 04:11:15;;;;;;;211.10;199.80;;;8.90;99.90;;;;;;4375150;32;20567;-69
2021/12/14 04:13:48;;;;;;;220.07;208.83;;;8.90;99.90;;;;;;4375120;32;20208;-69
2021/12/14 04:16:18;;;;;;;226.20;214.50;;;8.90;99.90;;;;;;4376867;32;20215;-66
2021/12/14 04:18:47;;;;;;;221.53;209.97;;;9.00;99.90;;;;;;4360220;33;20176;-67
2021/12/14 04:21:14;;;;;;;223.30;211.87;;;9.00;99.90;;;;;;4367532;32;20156;-69
2021/12/14 04:23:44;;;;;;;232.87;221.13;;;9.00;99.90;;;;;;4379665;32;20598;-72
2021/12/14 04:26:14;;;;;;;232.33;220.50;;;9.00;99.90;;;;;;4377687;32;20165;-66
2021/12/14 04:28:46;;;;;;;224.80;213.10;;;9.00;99.90;;;;;;4378613;32;20558;-68
2021/12/14 04:31:13;;;;;;;222.07;210.77;;;9.00;99.90;;;;;;4368673;32;20247;-72
2021/12/14 04:33:43;;;;;;;218.57;207.33;;;9.00;99.90;;;;;;4362953;33;20236;-67
2021/12/14 04:36:14;;;;;;;230.83;218.97;;;8.90;99.90;;;;;;4364501;32;20439;-68
2021/12/14 04:38:50;;;;;;;229.70;217.97;;;8.90;99.90;;;;;;4369247;32;20145;-68
2021/12/14 04:52:23;;;;;;;234.20;222.80;;;8.80;99.90;;;;;;4368387;32;20193;-66
2021/12/14 04:54:52;;;;;;;230.43;218.90;;;8.70;99.90;;;;;;4370216;32;20518;-68
2021/12/14 04:57:27;;;;;;;233.67;221.93;;;8.70;99.90;;;;;;4362666;32;20224;-67
2021/12/14 04:59:58;;;;;;;232.40;220.90;;;8.60;99.90;;;;;;4376987;32;20251;-68
2021/12/14 05:02:28;;;;;;;227.63;216.20;;;8.70;99.90;;;;;;4377393;32;20140;-68
2021/12/14 05:04:56;;;;;;;225.70;214.03;;;8.70;99.90;;;;;;4377936;32;20180;-70
2021/12/14 05:10:20;;;;;;;234.63;222.83;;;8.70;99.90;;;;;;4345699;33;20176;-67
2021/12/14 05:12:47;;;;;;;227.53;215.87;;;8.80;99.90;;;;;;4344841;33;20228;-69
2021/12/14 05:15:18;;;;;;;231.63;219.97;;;8.80;99.90;;;;;;4345551;33;20551;-71
2021/12/14 05:17:46;;;;;;;227.53;215.87;;;8.80;99.90;;;;;;4345382;33;20579;-70
2021/12/14 05:20:15;;;;;;;228.40;216.93;;;8.70;99.90;;;;;;4345572;33;20227;-71
2021/12/14 05:22:44;;;;;;;229.77;218.27;;;8.70;99.90;;;;;;4345157;33;20233;-69
2021/12/14 05:25:21;;;;;;;228.70;217.23;;;8.70;99.90;;;;;;4345079;33;20210;-70
2021/12/14 05:27:52;;;;;;;234.63;223.03;;;8.70;99.90;;;;;;4344342;33;20177;-67
2021/12/14 05:30:24;;;;;;;228.23;217.23;;;8.70;99.90;;;;;;4344882;33;20236;-66
2021/12/14 05:32:57;;;;;;;237.50;225.60;;;8.70;99.90;;;;;;4344626;33;20165;-66
2021/12/14 05:35:24;;;;;;;232.63;221.37;;;8.70;99.90;;;;;;4334391;33;20240;-73
2021/12/14 05:37:54;;;;;;;221.57;210.63;;;8.70;99.90;;;;;;4332086;33;20177;-66
2021/12/14 05:40:39;;;;;;;226.23;214.43;;;8.70;99.90;;;;;;4331471;33;20189;-69
2021/12/14 05:43:07;;;;;;;223.47;212.40;;;8.70;99.90;;;;;;4344231;33;20217;-70
2021/12/14 05:45:38;;;;;;;226.50;215.10;;;8.60;99.90;;;;;;4341914;33;20205;-67
2021/12/14 05:48:08;;;;;;;232.97;221.47;;;8.60;99.90;;;;;;4377278;32;20145;-67
2021/12/14 05:50:39;;;;;;;224.77;213.77;;;8.70;99.90;;;;;;4375788;32;20153;-68
2021/12/14 05:53:06;;;;;;;244.13;232.33;;;8.70;99.90;;;;;;4376377;32;20243;-67
2021/12/14 05:55:35;;;;;;;227.60;216.67;;;8.70;99.90;;;;;;4371757;32;20169;-67
2021/12/14 05:58:05;;;;;;;235.87;224.47;;;8.70;99.90;;;;;;4361601;33;20150;-69
2021/12/14 06:00:34;;;;;;;218.60;208.00;;;8.70;99.90;;;;;;4369996;32;20188;-68
2021/12/14 06:03:02;;;;;;;224.67;213.60;;;8.70;99.90;;;;;;4375679;32;20180;-69
2021/12/14 06:05:31;;;;;;;235.13;223.53;;;8.70;99.90;;;;;;4376034;32;20157;-68
2021/12/14 06:07:59;;;;;;;224.27;213.13;;;8.70;99.90;;;;;;4376107;32;20172;-68
2021/12/14 06:10:27;;;;;;;225.40;214.50;;;8.70;99.90;;;;;;4376425;32;20174;-72
2021/12/14 06:12:55;;;;;;;241.67;229.97;;;8.70;99.90;;;;;;4377062;32;20211;-69
2021/12/14 06:15:27;;;;;;;228.63;217.50;;;8.70;99.90;;;;;;4374194;32;20149;-68
2021/12/14 06:17:54;;;;;;;233.03;221.43;;;8.70;99.90;;;;;;4363327;32;20158;-69
2021/12/14 06:20:26;;;;;;;237.77;226.23;;;8.70;99.90;;;;;;4361865;32;20179;-69
2021/12/14 06:22:54;;;;;;;261.47;249.20;;;8.60;99.90;;;;;;4364044;32;20149;-68
2021/12/14 06:25:24;;;;;;;234.87;223.80;;;8.60;99.90;;;;;;4367860;32;20151;-67
2021/12/14 06:27:55;;;;;;;230.17;219.10;;;8.60;99.90;;;;;;4370593;32;20157;-67
2021/12/14 06:30:26;;;;;;;249.33;237.53;;;8.70;99.90;;;;;;4365357;32;20221;-67
2021/12/14 06:32:55;;;;;;;237.23;226.00;;;8.70;99.90;;;;;;4367612;32;20170;-66
2021/12/14 06:35:28;;;;;;;248.53;236.90;;;8.70;99.90;;;;;;4369280;32;20165;-67
2021/12/14 06:41:13;;;;;;;231.97;220.67;;;8.70;99.90;;;;;;4369821;32;20227;-68
2021/12/14 06:43:43;;;;;;;246.70;235.03;;;8.70;99.90;;;;;;4364566;32;20171;-68
2021/12/14 06:46:14;;;;;;;238.17;226.97;;;8.60;99.90;;;;;;4367744;32;20153;-68
2021/12/14 06:48:44;;;;;;;240.50;228.77;;;8.70;99.90;;;;;;4371899;32;20218;-67
2021/12/14 06:51:15;;;;;;;234.90;223.50;;;8.60;99.90;;;;;;4364516;32;20186;-68
2021/12/14 06:53:44;;;;;;;239.83;228.07;;;8.60;99.90;;;;;;4366806;32;20173;-68
2021/12/14 06:56:14;;;;;;;224.27;213.03;;;8.70;99.90;;;;;;4369361;32;20175;-68
2021/12/14 06:58:49;;;;;;;229.73;218.50;;;8.60;99.90;;;;;;4370812;32;20160;-68
2021/12/14 07:01:20;;;;;;;233.00;221.53;;;8.60;99.90;;;;;;4363011;32;20678;-68
2021/12/14 07:03:50;;;;;;;235.27;223.40;;;8.70;99.90;;;;;;4365172;32;20226;-69
2021/12/14 07:06:27;;;;;;;233.17;221.77;;;8.70;99.90;;;;;;4365831;32;20199;-68
2021/12/14 07:08:56;;;;;;;227.60;216.37;;;8.70;99.90;;;;;;4365889;32;21373;-68
2021/12/14 07:11:25;;;;;;;239.80;228.10;;;8.70;99.90;;;;;;4366106;32;20208;-69
2021/12/14 07:13:53;;;;;;;254.37;242.07;;;8.70;99.90;;;;;;4363104;32;20164;-68
2021/12/14 07:16:26;;;;;;;243.87;232.07;;;8.70;99.90;;;;;;4367373;32;20578;-68
2021/12/14 07:18:57;;;;;;;252.60;240.43;;;8.70;99.90;;;;;;4369714;32;20160;-68
2021/12/14 07:21:41;;;;;;;245.03;233.20;;;8.70;99.90;;;;;;4366106;32;20233;-70
2021/12/14 07:24:31;;;;;;;235.57;223.93;;;8.70;99.90;;;;;;4369090;32;20215;-69
2021/12/14 07:27:21;;;;;;;244.97;233.00;;;8.70;99.90;;;;;;4369001;32;20234;-68
2021/12/14 07:29:51;;;;;;;241.20;229.10;;;8.70;99.90;;;;;;4369353;32;20220;-67
2021/12/14 07:32:41;;;;;;;230.13;218.87;;;8.70;99.90;;;;;;4372409;32;20165;-68
2021/12/14 07:35:21;;;;;;;243.27;231.43;;;8.70;99.90;;;;;;4343623;33;20171;-69
2021/12/14 07:37:49;;;;;;;247.63;235.23;;;8.70;99.90;;;;;;4320000;33;20161;-69
2021/12/14 07:40:16;;;;;;;256.27;244.07;;;8.70;99.90;;;;;;4327964;33;20250;-68
2021/12/14 07:42:43;;;;;;;263.27;250.83;;;8.70;99.90;;;;;;4328151;33;20169;-68
2021/12/14 07:45:11;;;;;;;248.47;236.27;;;8.70;99.90;;;;;;4326425;33;20188;-68
2021/12/14 07:47:50;;;;;;;256.43;244.47;;;8.70;99.90;;;;;;4327350;33;20186;-67
2021/12/14 07:50:17;;;;;;;252.87;240.60;;;8.70;99.90;;;;;;4329250;33;20658;-67
2021/12/14 07:52:44;;;;;;;237.07;225.23;;;8.70;99.90;;;;;;4327399;33;20158;-68
2021/12/14 07:55:17;;;;;;;241.00;229.30;;;8.70;99.90;;;;;;4329157;33;20169;-67
2021/12/14 07:57:48;;;;;;;229.33;218.10;;;8.70;99.90;;;;;;4330742;33;20242;-68
2021/12/14 08:00:18;;;;;;;258.53;246.27;;;8.70;99.90;;;;;;4331321;33;20178;-68
2021/12/14 08:02:49;;;;;;;232.93;221.43;;;8.70;99.90;;;;;;4334620;33;20388;-68
2021/12/14 08:05:22;;;;;;;232.97;221.67;;;8.80;99.90;;;;;;4331603;33;20161;-68
2021/12/14 08:07:55;;;;;;;234.67;222.73;;;8.80;99.90;;;;;;4330871;33;20197;-69
2021/12/14 08:10:25;;;;;;;225.93;214.83;;;8.80;99.90;;;;;;4328100;33;20237;-68
2021/12/14 08:12:54;;;;;;;235.73;224.33;;;8.90;99.90;;;;;;4365833;32;20167;-68
2021/12/14 08:15:27;;;;;;;229.83;218.37;;;8.90;99.90;;;;;;4370036;32;20152;-67
2021/12/14 08:18:06;;;;;;;239.77;228.10;;;9.00;99.90;;;;;;4374556;32;20208;-68
2021/12/14 08:20:35;;;;;;;242.23;229.93;;;9.00;99.90;;;;;;4376763;32;20155;-69
2021/12/14 08:23:13;;;;;;;224.10;212.00;;;9.00;99.90;;;;;;4368898;32;20586;-68
2021/12/14 08:25:42;;;;;;;232.83;220.97;;;9.10;99.90;;;;;;4368302;32;20172;-67
2021/12/14 08:28:12;;;;;;;229.93;218.73;;;9.00;99.90;;;;;;4373358;32;20153;-69
2021/12/14 08:30:45;;;;;;;229.10;217.77;;;9.00;99.90;;;;;;4368847;32;20577;-67
2021/12/14 08:33:21;;;;;;;240.93;229.07;;;9.10;99.90;;;;;;4369728;32;20155;-69
2021/12/14 08:35:48;;;;;;;230.90;219.27;;;9.10;99.90;;;;;;4371172;32;20148;-67
2021/12/14 08:38:18;;;;;;;211.47;200.90;;;9.20;99.90;;;;;;4376362;32;20160;-68
2021/12/14 08:40:50;;;;;;;217.07;205.70;;;9.20;99.90;;;;;;4371132;32;20427;-69
2021/12/14 08:43:24;;;;;;;242.80;230.97;;;9.20;99.90;;;;;;4372786;32;20581;-66
2021/12/14 08:45:54;;;;;;;225.43;214.23;;;9.30;99.90;;;;;;4373962;32;20155;-66
2021/12/14 08:48:25;;;;;;;216.70;205.60;;;9.40;99.90;;;;;;4376765;32;20578;-67
2021/12/14 08:50:56;;;;;;;212.10;201.50;;;9.40;99.90;;;;;;4372682;32;20189;-66
2021/12/14 08:53:26;;;;;;;199.57;189.40;;;9.40;99.90;;;;;;4369785;32;20207;-68
2021/12/14 08:55:56;;;;;;;207.10;196.63;;;9.40;99.90;;;;;;4368822;32;20469;-68
2021/12/14 08:58:24;;;;;;;214.67;203.30;;;9.40;99.90;;;;;;4374644;32;20585;-66
2021/12/14 09:00:55;;;;;;;199.03;188.93;;;9.30;99.90;;;;;;4372357;32;20563;-65
2021/12/14 09:03:31;;;;;;;208.60;197.87;;;9.30;99.90;;;;;;4371963;32;20174;-69
2021/12/14 09:06:01;;;;;;;201.93;191.57;;;9.30;99.90;;;;;;4373997;32;20191;-69
2021/12/14 09:08:28;;;;;;;213.60;203.07;;;9.40;99.90;;;;;;4368032;32;20585;-66
2021/12/14 09:10:58;;;;;;;207.57;197.03;;;9.40;99.90;;;;;;4375167;32;20180;-67
2021/12/14 09:13:26;;;;;;;220.77;209.47;;;9.30;99.90;;;;;;4375776;32;20152;-67
2021/12/14 09:15:56;;;;;;;213.10;202.43;;;9.40;99.90;;;;;;4376738;32;20227;-68
2021/12/14 09:18:25;;;;;;;229.07;217.87;;;9.20;99.90;;;;;;4376717;32;20153;-66
2021/12/14 09:20:56;;;;;;;231.67;219.80;;;9.20;99.90;;;;;;4374518;32;20210;-67
2021/12/14 09:23:26;;;;;;;233.10;221.47;;;9.20;99.90;;;;;;4377166;32;20158;-69
2021/12/14 09:25:54;;;;;;;247.10;234.73;;;9.30;99.90;;;;;;4368650;32;20639;-67
2021/12/14 09:28:23;;;;;;;241.37;229.20;;;9.30;99.90;;;;;;4374098;32;20167;-67
2021/12/14 09:30:54;;;;;;;238.13;226.30;;;9.20;99.90;;;;;;4374576;32;20632;-68
2021/12/14 09:33:21;;;;;;;248.50;236.03;;;9.30;99.90;;;;;;4372087;32;20587;-67
2021/12/14 09:35:48;;;;;;;240.03;227.80;;;9.20;99.90;;;;;;4374275;32;20282;-68
2021/12/14 09:38:19;;;;;;;251.00;238.33;;;9.10;99.90;;;;;;4373711;32;20191;-69
2021/12/14 09:40:51;;;;;;;241.43;228.77;;;9.10;99.90;;;;;;4369217;32;20174;-68
2021/12/14 09:43:18;;;;;;;238.90;226.77;;;9.10;99.90;;;;;;4370985;32;20183;-66
2021/12/14 09:45:52;;;;;;;232.30;220.10;;;9.10;99.90;;;;;;4371239;32;20177;-67
2021/12/14 09:48:22;;;;;;;238.37;225.80;;;9.20;99.90;;;;;;4372801;32;20446;-68
2021/12/14 09:50:51;;;;;;;217.70;206.13;;;9.30;99.90;;;;;;4369105;32;20212;-66
2021/12/14 09:53:21;;;;;;;212.67;201.00;;;9.30;99.90;;;;;;4372074;32;20497;-67
2021/12/14 09:55:50;;;;;;;202.43;191.27;;;9.30;99.90;;;;;;4369407;32;20184;-68
2021/12/14 09:58:20;;;;;;;216.33;204.63;;;9.20;99.90;;;;;;4371681;32;20164;-65
2021/12/14 10:00:54;;;;;;;220.43;208.40;;;9.10;99.90;;;;;;4370873;32;20185;-67
2021/12/14 10:03:21;;;;;;;261.97;248.40;;;9.10;99.90;;;;;;4367572;32;20259;-66
2021/12/14 10:05:53;;;;;;;276.77;262.63;;;9.10;99.90;;;;;;4367541;32;20242;-68
2021/12/14 10:08:25;;;;;;;273.97;259.80;;;9.20;99.90;;;;;;4368581;32;20161;-67
2021/12/14 10:10:59;;;;;;;296.47;280.97;;;9.20;99.90;;;;;;4368580;32;20239;-68
2021/12/14 10:13:27;;;;;;;314.47;298.30;;;9.30;99.90;;;;;;4369298;32;20178;-66
2021/12/14 10:15:57;;;;;;;298.07;282.83;;;9.30;99.90;;;;;;4374485;32;20164;-66
2021/12/14 10:18:27;;;;;;;292.13;276.90;;;9.30;99.90;;;;;;4375087;32;20221;-66
2021/12/14 10:20:57;;;;;;;317.67;301.20;;;9.30;99.90;;;;;;4368200;32;20179;-67
2021/12/14 10:23:28;;;;;;;332.87;316.13;;;9.20;99.90;;;;;;4330258;32;1700891;-67
2021/12/14 10:25:57;;;;;;;333.17;316.23;;;9.30;99.90;;;;;;4392248;32;20141;-65
2021/12/14 10:28:27;;;;;;;348.83;330.73;;;9.40;99.90;;;;;;4386412;32;20171;-66
2021/12/14 10:30:58;;;;;;;342.53;324.87;;;9.50;99.90;;;;;;4381002;32;20149;-68
2021/12/14 10:33:32;;;;;;;322.47;305.83;;;9.50;99.90;;;;;;4384210;32;20167;-66
2021/12/14 10:36:04;;;;;;;350.40;332.50;;;9.40;99.90;;;;;;4380783;32;20187;-66
2021/12/14 10:38:38;;;;;;;357.17;338.17;;;9.40;99.90;;;;;;4385233;32;20167;-67
2021/12/14 10:44:04;;;;;;;371.13;351.77;;;9.40;99.90;;;;;;4341025;33;20542;-66
2021/12/14 10:46:35;;;;;;;356.67;337.80;;;9.40;99.90;;;;;;4342113;33;20217;-66
2021/12/14 10:49:03;;;;;;;362.60;343.80;;;9.40;99.90;;;;;;4340378;33;20647;-68
2021/12/14 10:51:38;;;;;;;361.87;342.23;;;9.30;99.90;;;;;;4344724;33;20228;-65
2021/12/14 10:54:10;;;;;;;370.57;350.77;;;9.30;99.90;;;;;;4344429;33;20156;-66
2021/12/14 10:56:40;;;;;;;367.43;348.27;;;9.30;99.90;;;;;;4343634;33;20171;-68
2021/12/14 10:59:10;;;;;;;381.40;361.63;;;9.40;99.90;;;;;;4342281;33;20192;-68
2021/12/14 11:01:39;;;;;;;357.70;338.93;;;9.50;99.90;;;;;;4343094;33;20219;-69
2021/12/14 11:04:09;;;;;;;371.43;351.70;;;9.50;99.90;;;;;;4343548;33;20172;-66
2021/12/14 11:06:42;;;;;;;374.87;354.87;;;9.40;99.90;;;;;;4344752;33;20610;-68
2021/12/14 11:11:59;;;;;;;390.07;369.67;;;9.40;99.90;;;;;;4342194;33;20654;-66
2021/12/14 11:14:29;;;;;;;365.63;346.07;;;9.50;99.90;;;;;;4343580;33;20239;-67
2021/12/14 11:19:49;;;;;;;375.93;355.60;;;9.50;99.90;;;;;;4349422;32;20228;-67
2021/12/14 11:22:19;;;;;;;390.20;369.37;;;9.60;99.90;;;;;;4389251;32;20167;-67
2021/12/14 11:24:49;;;;;;;359.93;341.33;;;9.60;99.90;;;;;;4384819;32;20179;-67
2021/12/14 11:27:19;;;;;;;368.53;349.37;;;9.60;99.90;;;;;;4388219;32;20153;-68
2021/12/14 11:29:50;;;;;;;353.00;334.13;;;9.60;99.90;;;;;;4386925;32;20299;-70
2021/12/14 11:32:22;;;;;;;346.90;328.13;;;9.50;99.90;;;;;;4387077;32;20172;-67
2021/12/14 11:34:49;;;;;;;332.50;314.60;;;9.50;99.90;;;;;;4387382;32;20187;-70
2021/12/14 11:37:32;;;;;;;342.60;324.00;;;9.60;99.90;;;;;;4388613;32;20244;-68
2021/12/14 11:40:01;;;;;;;342.30;323.97;;;9.60;99.90;;;;;;4386281;32;20226;-67
2021/12/14 11:42:28;;;;;;;351.30;332.27;;;9.60;99.90;;;;;;4387871;32;20171;-67
2021/12/14 11:45:00;;;;;;;374.80;354.03;;;9.60;99.90;;;;;;4387688;32;20183;-69
2021/12/14 11:47:46;;;;;;;350.13;330.87;;;9.60;99.90;;;;;;4388248;32;20162;-67
2021/12/14 11:50:22;;;;;;;365.10;345.77;;;9.60;99.90;;;;;;4386253;32;20165;-68
2021/12/14 11:52:54;;;;;;;354.50;335.70;;;9.70;99.90;;;;;;4383245;32;20196;-67
2021/12/14 11:55:38;;;;;;;331.50;313.47;;;9.70;99.90;;;;;;4383253;32;20478;-68
2021/12/14 11:58:27;;;;;;;315.27;298.23;;;9.70;99.90;;;;;;4382167;32;20150;-68
2021/12/14 12:00:58;;;;;;;373.43;353.93;;;9.60;99.90;;;;;;4354189;33;20158;-68
2021/12/14 12:03:51;;;;;;;368.10;348.57;;;9.60;99.90;;;;;;4354888;33;20629;-67
2021/12/14 12:06:34;;;;;;;369.17;349.20;;;9.60;99.90;;;;;;4327009;33;20592;-67
2021/12/14 12:11:54;;;;;;;362.63;343.17;;;9.70;99.90;;;;;;4327272;33;20212;-70
2021/12/14 12:14:26;;;;;;;379.83;359.20;;;9.70;99.90;;;;;;4327011;33;20154;-68
2021/12/14 12:16:56;;;;;;;385.33;364.83;;;9.60;99.90;;;;;;4327313;33;20619;-70
2021/12/14 12:19:29;;;;;;;371.50;351.03;;;9.60;99.90;;;;;;4326148;33;20157;-69
2021/12/14 12:22:05;;;;;;;372.37;352.77;;;9.60;99.90;;;;;;4327871;33;20159;-67
2021/12/14 12:24:34;;;;;;;379.70;359.30;;;9.60;99.90;;;;;;4325705;33;20152;-69
2021/12/14 12:27:26;;;;;;;404.23;382.07;;;9.60;99.90;;;;;;4318446;33;20163;-71
2021/12/14 12:30:34;;;;;;;382.67;362.33;;;9.60;99.90;;;;;;4327900;33;20451;-67
2021/12/14 12:33:40;;;;;;;394.40;372.57;;;9.60;99.90;;;;;;4275120;33;20208;-68
2021/12/14 12:36:12;;;;;;;391.53;369.83;;;9.50;99.90;;;;;;4283676;33;20434;-67
2021/12/14 12:38:48;;;;;;;447.23;423.83;;;9.50;99.90;;;;;;4295465;33;20186;-66
2021/12/14 12:41:26;;;;;;;442.10;418.20;;;9.50;99.90;;;;;;4315738;33;20183;-65
2021/12/14 12:43:59;;;;;;;451.93;426.80;;;9.50;99.90;;;;;;4333839;33;20163;-68
2021/12/14 12:46:28;;;;;;;455.07;429.80;;;9.60;99.90;;;;;;4336438;33;20761;-68
2021/12/14 12:49:15;;;;;;;455.73;430.60;;;9.50;99.90;;;;;;4343217;33;20153;-67
2021/12/14 12:52:16;;;;;;;468.53;443.57;;;9.50;99.90;;;;;;4344477;33;20182;-68
2021/12/14 12:55:01;;;;;;;453.53;428.73;;;9.60;99.90;;;;;;4302764;33;20161;-66
2021/12/14 12:57:53;;;;;;;454.00;428.83;;;9.60;99.90;;;;;;4309795;33;20162;-66
2021/12/14 13:00:36;;;;;;;478.03;452.40;;;9.60;99.90;;;;;;4303970;33;20226;-68
2021/12/14 13:03:08;;;;;;;452.13;427.57;;;9.60;99.90;;;;;;4304005;33;20154;-66
2021/12/14 13:05:39;;;;;;;480.17;454.10;;;9.60;99.90;;;;;;4310898;33;20174;-67
2021/12/14 13:08:26;;;;;;;468.53;443.73;;;9.60;99.90;;;;;;4304177;33;20182;-68
2021/12/14 13:10:57;;;;;;;456.97;432.70;;;9.70;99.90;;;;;;4343897;33;20165;-68
2021/12/14 13:13:27;;;;;;;456.97;432.83;;;9.60;99.90;;;;;;4354632;32;20171;-66